Time;durP1;ratioP1;P1;durP2;ratioP2;P2;SDS_P1;SDS_P2;PMS_P1;PMS_P2;Temp;Humidity;BMP_temperature;BMP_pressure;BME280_temperature;BME280_humidity;BME280_pressure;Samples;Min_cycle;Max_cycle;Signal;HPM_P1;HPM_P2
2023/04/30 00:00:49;;;;;;;;;;;;;;;17.73;53.83;101316.38;2343092;75;51428;-74
2023/04/30 00:03:50;;;;;;;;;;;;;;;17.71;53.81;101317.88;2343347;75;51772;-74
2023/04/30 00:06:52;;;;;;;;;;;;;;;17.73;53.81;101316.38;2307811;75;51524;-75
2023/04/30 00:09:54;;;;;;;;;;;;;;;17.72;53.73;101312.84;2335522;75;51630;-74
2023/04/30 00:12:56;;;;;;;;;;;;;;;17.71;53.76;101316.53;2341783;75;50759;-74
2023/04/30 00:15:57;;;;;;;;;;;;;;;17.72;53.75;101317.36;2315538;76;51391;-75
2023/04/30 00:18:59;;;;;;;;;;;;;;;17.72;53.80;101321.37;2344548;75;50660;-75
2023/04/30 00:22:05;;;;;;;;;;;;;;;17.72;53.77;101323.55;2342148;75;50767;-75
2023/04/30 00:25:06;;;;;;;;;;;;;;;17.72;53.75;101322.72;2337389;75;50292;-74
2023/04/30 00:28:08;;;;;;;;;;;;;;;17.72;53.76;101329.41;2342419;75;52356;-74
2023/04/30 00:31:09;;;;;;;;;;;;;;;17.72;53.73;101335.59;2340599;75;50646;-75
2023/04/30 00:34:11;;;;;;;;;;;;;;;17.73;53.70;101332.45;2339545;75;50233;-75
2023/04/30 00:37:13;;;;;;;;;;;;;;;17.71;53.77;101331.76;2282335;76;50672;-75
2023/04/30 00:40:15;;;;;;;;;;;;;;;17.70;53.74;101334.94;2315367;76;51871;-75
2023/04/30 00:43:17;;;;;;;;;;;;;;;17.70;53.74;101342.97;2342091;75;51590;-74
2023/04/30 00:46:18;;;;;;;;;;;;;;;17.72;53.70;101342.80;2337531;76;51658;-75
2023/04/30 00:49:20;;;;;;;;;;;;;;;17.71;53.70;101348.66;2337497;76;50744;-73
2023/04/30 00:52:22;;;;;;;;;;;;;;;17.70;53.70;101353.68;2341971;75;52733;-74
2023/04/30 00:55:23;;;;;;;;;;;;;;;17.70;53.72;101356.35;2337009;75;51484;-75
2023/04/30 00:58:25;;;;;;;;;;;;;;;17.70;53.72;101362.18;2337450;75;50247;-75
2023/04/30 01:01:31;;;;;;;;;;;;;;;17.71;53.72;101363.88;2337462;76;51453;-75
2023/04/30 01:04:30;;;;;;;;;;;;;;;17.71;53.76;101367.39;2329978;76;22991;-75
2023/04/30 01:07:32;;;;;;;;;;;;;;;17.71;53.76;101377.26;2285117;76;51757;-75
2023/04/30 01:10:35;;;;;;;;;;;;;;;17.71;53.72;101383.45;2337449;75;51655;-75
2023/04/30 01:13:38;;;;;;;;;;;;;;;17.71;53.72;101375.92;2337551;76;50902;-75
2023/04/30 01:16:41;;;;;;;;;;;;;;;17.70;53.73;101382.25;2336465;75;50405;-74
2023/04/30 01:19:43;;;;;;;;;;;;;;;17.69;53.73;101388.11;2341771;75;52460;-75
2023/04/30 01:22:47;;;;;;;;;;;;;;;17.70;53.70;101387.61;2341705;75;50619;-75
2023/04/30 01:25:53;;;;;;;;;;;;;;;17.68;53.71;101389.13;2337398;76;50791;-74
2023/04/30 01:28:54;;;;;;;;;;;;;;;17.70;53.69;101385.80;2337341;75;50347;-75
2023/04/30 01:31:56;;;;;;;;;;;;;;;17.68;53.76;101389.63;2341898;75;52343;-75
2023/04/30 01:34:58;;;;;;;;;;;;;;;17.69;53.72;101397.98;2335720;75;50789;-75
2023/04/30 01:38:18;;;;;;;;;;;;;;;17.70;53.68;101392.95;2295194;75;50313;-74
2023/04/30 01:41:30;;;;;;;;;;;;;;;17.70;53.66;101398.31;2297939;77;50841;-74
2023/04/30 01:44:39;;;;;;;;;;;;;;;17.68;53.73;101402.50;2244439;77;51036;-74
2023/04/30 01:47:52;;;;;;;;;;;;;;;17.67;53.75;101398.12;2298413;77;50286;-74
2023/04/30 01:50:55;;;;;;;;;;;;;;;17.68;53.72;101408.36;2297994;77;51597;-75
2023/04/30 01:53:57;;;;;;;;;;;;;;;17.68;53.69;101403.84;2295914;76;50568;-75
2023/04/30 01:57:02;;;;;;;;;;;;;;;17.69;53.68;101409.52;2276136;77;52595;-75
2023/04/30 02:00:04;;;;;;;;;;;;;;;17.68;53.69;101421.75;2297618;77;23038;-75
2023/04/30 02:03:06;;;;;;;;;;;;;;;17.68;53.72;101420.41;2297919;77;50782;-75
2023/04/30 02:06:07;;;;;;;;;;;;;;;17.68;53.73;101419.07;2324940;76;50778;-75
2023/04/30 02:09:09;;;;;;;;;;;;;;;17.68;53.71;101432.45;2341874;75;51219;-75
2023/04/30 02:12:11;;;;;;;;;;;;;;;17.67;53.71;101434.77;2341940;75;50377;-75
2023/04/30 02:15:12;;;;;;;;;;;;;;;17.67;53.71;101433.43;2341896;75;50040;-74
2023/04/30 02:18:14;;;;;;;;;;;;;;;17.67;53.71;101437.44;2337412;76;50449;-75
2023/04/30 02:21:15;;;;;;;;;;;;;;;17.67;53.70;101444.97;2337588;76;50424;-75
2023/04/30 02:24:17;;;;;;;;;;;;;;;17.65;53.74;101444.31;2341531;75;50328;-75
2023/04/30 02:27:19;;;;;;;;;;;;;;;17.66;53.71;101451.33;2337402;75;50416;-75
2023/04/30 02:30:21;;;;;;;;;;;;;;;17.66;53.71;101444.64;2337340;76;51685;-74
2023/04/30 02:33:23;;;;;;;;;;;;;;;17.65;53.74;101449.66;2341849;75;51243;-75
2023/04/30 02:36:25;;;;;;;;;;;;;;;17.67;53.71;101457.52;2313765;75;50134;-75
2023/04/30 02:39:26;;;;;;;;;;;;;;;17.66;53.71;101456.69;2297840;77;51531;-75
2023/04/30 02:42:28;;;;;;;;;;;;;;;17.67;53.73;101461.53;2302125;77;51523;-75
2023/04/30 02:45:30;;;;;;;;;;;;;;;17.66;53.73;101457.19;2275057;77;49622;-74
2023/04/30 02:48:32;;;;;;;;;;;;;;;17.65;53.74;101465.72;2276687;77;51997;-75
2023/04/30 02:51:34;;;;;;;;;;;;;;;17.66;53.69;101474.08;2302161;77;51884;-75
2023/04/30 02:54:35;;;;;;;;;;;;;;;17.66;53.71;101465.22;2302133;77;51507;-75
2023/04/30 02:57:37;;;;;;;;;;;;;;;17.65;53.69;101460.37;2297897;77;50298;-74
2023/04/30 03:00:39;;;;;;;;;;;;;;;17.64;53.77;101466.70;2302452;77;51538;-75
2023/04/30 03:03:41;;;;;;;;;;;;;;;17.66;53.71;101478.09;2297960;77;51433;-75
2023/04/30 03:06:42;;;;;;;;;;;;;;;17.64;53.68;101478.23;2308562;76;50689;-75
2023/04/30 03:09:45;;;;;;;;;;;;;;;17.64;53.66;101483.59;2341655;75;51244;-75
2023/04/30 03:12:47;;;;;;;;;;;;;;;17.64;53.70;101486.77;2341719;75;51685;-74
2023/04/30 03:15:48;;;;;;;;;;;;;;;17.64;53.68;101486.27;2341735;75;51459;-74
2023/04/30 03:18:50;;;;;;;;;;;;;;;17.64;53.69;101490.78;2341524;75;51469;-75
2023/04/30 03:21:52;;;;;;;;;;;;;;;17.65;53.68;101493.82;2341751;75;51460;-75
2023/04/30 03:24:53;;;;;;;;;;;;;;;17.66;53.69;101490.64;2341351;75;50692;-75
2023/04/30 03:27:55;;;;;;;;;;;;;;;17.65;53.66;101496.50;2341766;75;53604;-75
2023/04/30 03:30:58;;;;;;;;;;;;;;;17.63;53.66;101492.62;2341575;75;52259;-74
2023/04/30 03:33:59;;;;;;;;;;;;;;;17.62;53.72;101498.98;2337170;75;50343;-75
2023/04/30 03:37:01;;;;;;;;;;;;;;;17.64;53.69;101500.16;2263930;77;50740;-75
2023/04/30 03:40:03;;;;;;;;;;;;;;;17.63;53.67;101495.30;2260279;77;51256;-75
2023/04/30 03:43:05;;;;;;;;;;;;;;;17.63;53.68;101495.30;2293110;77;51873;-74
2023/04/30 03:46:07;;;;;;;;;;;;;;;17.63;53.67;101501.16;2235242;77;51872;-75
2023/04/30 03:49:09;;;;;;;;;;;;;;;17.63;53.67;101503.33;2260439;77;50783;-75
2023/04/30 03:52:10;;;;;;;;;;;;;;;17.62;53.71;101504.81;2293106;77;50781;-74
2023/04/30 03:55:12;;;;;;;;;;;;;;;17.62;53.68;101513.71;2260035;77;50792;-74
2023/04/30 03:58:14;;;;;;;;;;;;;;;17.63;53.65;101518.05;2259821;77;51747;-75
2023/04/30 04:01:15;;;;;;;;;;;;;;;17.63;53.68;101518.55;2293096;77;51515;-74
2023/04/30 04:04:17;;;;;;;;;;;;;;;17.62;53.68;101523.08;2293085;76;51527;-74
2023/04/30 04:07:19;;;;;;;;;;;;;;;17.62;53.70;101523.55;2310260;76;50653;-75
2023/04/30 04:10:20;;;;;;;;;;;;;;;17.63;53.63;101528.76;2276668;77;52517;-75
2023/04/30 04:13:22;;;;;;;;;;;;;;;17.62;53.66;101529.77;2298221;77;50684;-74
2023/04/30 04:16:23;;;;;;;;;;;;;;;17.63;53.61;101542.14;2297773;76;52514;-75
2023/04/30 04:19:25;;;;;;;;;;;;;;;17.62;53.64;101532.91;2276753;77;51467;-74
2023/04/30 04:22:27;;;;;;;;;;;;;;;17.63;53.61;101531.94;2297942;77;51683;-75
2023/04/30 04:25:29;;;;;;;;;;;;;;;17.63;53.61;101543.48;2276323;77;50741;-74
2023/04/30 04:28:30;;;;;;;;;;;;;;;17.62;53.58;101543.15;2297806;76;51598;-74
2023/04/30 04:31:32;;;;;;;;;;;;;;;17.63;53.64;101551.51;2297651;76;50700;-75
2023/04/30 04:34:34;;;;;;;;;;;;;;;17.62;53.60;101547.63;2283234;76;52565;-75
2023/04/30 04:37:35;;;;;;;;;;;;;;;17.61;53.63;101551.32;2322385;76;49938;-76
2023/04/30 04:40:37;;;;;;;;;;;;;;;17.62;53.61;101556.53;2334621;76;50705;-75
2023/04/30 04:43:38;;;;;;;;;;;;;;;17.62;53.60;101557.00;2300459;76;50452;-73
2023/04/30 04:46:44;;;;;;;;;;;;;;;17.62;53.61;101559.20;2300511;76;51782;-74
2023/04/30 04:49:43;;;;;;;;;;;;;;;17.62;53.55;101561.88;2300678;76;22789;-75
2023/04/30 04:52:45;;;;;;;;;;;;;;;17.62;53.57;101563.22;2335081;76;51494;-73
2023/04/30 04:55:46;;;;;;;;;;;;;;;17.63;53.57;101575.59;2300748;76;51485;-74
2023/04/30 04:58:48;;;;;;;;;;;;;;;17.64;53.56;101576.42;2300665;76;52402;-74
2023/04/30 05:01:50;;;;;;;;;;;;;;;17.63;53.56;101587.64;2300768;76;50247;-74
2023/04/30 05:04:51;;;;;;;;;;;;;;;17.65;53.55;101586.16;2329029;76;51586;-75
2023/04/30 05:07:53;;;;;;;;;;;;;;;17.64;53.57;101596.00;2322386;76;51529;-75
2023/04/30 05:10:55;;;;;;;;;;;;;;;17.63;53.55;101592.98;2300813;76;49658;-74
2023/04/30 05:13:57;;;;;;;;;;;;;;;17.66;53.50;101600.38;2334711;76;50672;-75
2023/04/30 05:16:58;;;;;;;;;;;;;;;17.74;53.28;101601.27;2301206;76;50400;-75
2023/04/30 05:20:00;;;;;;;;;;;;;;;17.86;53.04;101609.12;2301307;76;50430;-75
2023/04/30 05:23:02;;;;;;;;;;;;;;;17.99;52.78;101611.73;2276024;76;51128;-75
2023/04/30 05:26:04;;;;;;;;;;;;;;;18.14;52.34;101614.69;2334962;76;51577;-75
2023/04/30 05:29:05;;;;;;;;;;;;;;;18.25;52.07;101620.28;2300367;76;50685;-74
2023/04/30 05:32:07;;;;;;;;;;;;;;;18.32;51.89;101627.20;2334083;76;50753;-74
2023/04/30 05:35:09;;;;;;;;;;;;;;;18.36;51.80;101626.70;2267101;76;51160;-73
2023/04/30 05:38:14;;;;;;;;;;;;;;;18.44;51.72;101629.94;2292473;76;50341;-74
2023/04/30 05:41:14;;;;;;;;;;;;;;;18.49;51.63;101628.97;2335914;76;22359;-74
2023/04/30 05:44:15;;;;;;;;;;;;;;;18.53;51.60;101634.88;2340574;75;50667;-74
2023/04/30 05:47:17;;;;;;;;;;;;;;;18.56;51.61;101637.23;2340865;75;52561;-75
2023/04/30 05:50:18;;;;;;;;;;;;;;;18.58;51.55;101643.28;2340976;75;51473;-74
2023/04/30 05:53:20;;;;;;;;;;;;;;;18.60;51.56;101642.59;2336487;76;51534;-74
2023/04/30 05:56:22;;;;;;;;;;;;;;;18.63;51.52;101645.81;2340745;75;51391;-74
2023/04/30 05:59:24;;;;;;;;;;;;;;;18.67;51.39;101644.98;2301779;76;52603;-74
2023/04/30 06:02:26;;;;;;;;;;;;;;;18.71;51.30;101647.19;2340744;75;50395;-74
2023/04/30 06:05:28;;;;;;;;;;;;;;;18.75;51.28;101651.76;2332057;75;50530;-74
2023/04/30 06:08:29;;;;;;;;;;;;;;;18.81;51.17;101653.82;2307966;76;50763;-74
2023/04/30 06:11:31;;;;;;;;;;;;;;;18.90;50.99;101654.18;2340803;75;51490;-74
2023/04/30 06:14:33;;;;;;;;;;;;;;;18.94;50.86;101660.08;2336220;76;50149;-74
2023/04/30 06:17:35;;;;;;;;;;;;;;;19.01;50.77;101656.23;2336364;76;50847;-74
2023/04/30 06:20:36;;;;;;;;;;;;;;;19.06;50.66;101653.91;2336502;76;51429;-74
2023/04/30 06:23:38;;;;;;;;;;;;;;;19.11;50.53;101665.00;2336459;76;51523;-74
2023/04/30 06:26:40;;;;;;;;;;;;;;;19.12;50.51;101658.65;2340531;75;51488;-74
2023/04/30 06:29:41;;;;;;;;;;;;;;;19.17;50.43;101671.58;2336360;75;51476;-73
2023/04/30 06:32:43;;;;;;;;;;;;;;;19.15;50.44;101669.05;2340756;75;51541;-74
2023/04/30 06:35:45;;;;;;;;;;;;;;;19.21;50.33;101671.58;2301753;76;52497;-74
2023/04/30 06:38:46;;;;;;;;;;;;;;;19.23;50.28;101677.63;2297103;76;51531;-73
2023/04/30 06:41:48;;;;;;;;;;;;;;;19.23;50.33;101677.13;2296936;77;50695;-74
2023/04/30 06:44:50;;;;;;;;;;;;;;;19.23;50.28;101678.97;2275348;77;51546;-73
2023/04/30 06:47:52;;;;;;;;;;;;;;;19.25;50.28;101673.78;2239292;77;52593;-74
2023/04/30 06:50:53;;;;;;;;;;;;;;;19.23;50.21;101675.78;2296968;77;50350;-74
2023/04/30 06:53:55;;;;;;;;;;;;;;;19.22;50.25;101671.43;2296771;76;50658;-73
2023/04/30 06:56:57;;;;;;;;;;;;;;;19.22;50.24;101675.45;2275606;77;50433;-73
2023/04/30 06:59:59;;;;;;;;;;;;;;;19.24;50.21;101673.94;2250311;77;49189;-73
2023/04/30 07:03:02;;;;;;;;;;;;;;;19.24;50.17;101679.30;2275719;77;51520;-73
2023/04/30 07:06:04;;;;;;;;;;;;;;;19.24;50.17;101679.30;2308982;76;50287;-74
2023/04/30 07:09:06;;;;;;;;;;;;;;;19.25;50.09;101673.78;2275627;77;51515;-74
2023/04/30 07:12:09;;;;;;;;;;;;;;;19.25;50.06;101669.76;2275752;77;52584;-74
2023/04/30 07:15:11;;;;;;;;;;;;;;;19.26;50.01;101675.95;2276025;77;22473;-74
2023/04/30 07:18:12;;;;;;;;;;;;;;;19.28;49.96;101677.98;2296729;76;50548;-75
2023/04/30 07:21:15;;;;;;;;;;;;;;;19.27;49.95;101670.95;2296969;77;51571;-75
2023/04/30 07:24:16;;;;;;;;;;;;;;;19.27;49.89;101675.81;2275290;77;51367;-74
2023/04/30 07:27:18;;;;;;;;;;;;;;;19.25;49.90;101675.62;2296896;77;50437;-73
2023/04/30 07:30:19;;;;;;;;;;;;;;;19.25;49.85;101679.15;2275589;77;50643;-73
2023/04/30 07:33:21;;;;;;;;;;;;;;;19.26;49.89;101682.16;2296900;76;51574;-74
2023/04/30 07:36:23;;;;;;;;;;;;;;;19.26;49.84;101685.35;2260787;76;51283;-74
2023/04/30 07:39:25;;;;;;;;;;;;;;;19.25;49.83;101681.83;2311993;76;50095;-74
2023/04/30 07:42:26;;;;;;;;;;;;;;;19.26;49.82;101681.33;2312413;76;50395;-74
2023/04/30 07:45:28;;;;;;;;;;;;;;;19.26;49.74;101682.66;2344329;75;51538;-74
2023/04/30 07:48:30;;;;;;;;;;;;;;;19.25;49.78;101682.34;2312223;76;51174;-74
2023/04/30 07:51:31;;;;;;;;;;;;;;;19.24;49.75;101673.94;2312600;76;51539;-73
2023/04/30 07:54:35;;;;;;;;;;;;;;;19.22;49.76;101682.67;2312351;76;51549;-74
2023/04/30 07:57:36;;;;;;;;;;;;;;;19.22;49.73;101686.19;2344857;75;24541;-73
2023/04/30 08:00:38;;;;;;;;;;;;;;;19.22;49.72;101694.74;2312322;76;49622;-73
2023/04/30 08:03:39;;;;;;;;;;;;;;;19.21;49.72;101694.39;2312366;76;50365;-74
2023/04/30 08:06:41;;;;;;;;;;;;;;;19.18;49.78;101704.94;2312984;76;50758;-74
2023/04/30 08:09:43;;;;;;;;;;;;;;;19.17;49.75;101693.88;2296979;77;50073;-74
2023/04/30 08:12:44;;;;;;;;;;;;;;;19.15;49.82;101697.22;2275399;77;51711;-74
2023/04/30 08:15:46;;;;;;;;;;;;;;;19.14;49.80;101689.67;2296795;77;50871;-73
2023/04/30 08:18:48;;;;;;;;;;;;;;;19.15;49.73;101693.20;2296878;76;51481;-73
2023/04/30 08:21:49;;;;;;;;;;;;;;;19.12;49.76;101695.70;2275736;77;50383;-74
2023/04/30 08:24:51;;;;;;;;;;;;;;;19.12;49.77;101700.23;2296839;77;50367;-74
2023/04/30 08:27:53;;;;;;;;;;;;;;;19.10;49.76;101704.91;2296947;77;50325;-74
2023/04/30 08:30:54;;;;;;;;;;;;;;;19.08;49.77;101699.69;2296887;76;50434;-74
2023/04/30 08:33:56;;;;;;;;;;;;;;;19.07;49.77;101699.88;2296792;77;51620;-74
2023/04/30 08:36:57;;;;;;;;;;;;;;;19.07;49.75;101699.88;2316220;76;50283;-73
2023/04/30 08:39:59;;;;;;;;;;;;;;;19.08;49.74;101704.22;2340788;75;50941;-74
2023/04/30 08:43:07;;;;;;;;;;;;;;;19.05;49.79;101707.23;2340751;75;50976;-73
2023/04/30 08:46:09;;;;;;;;;;;;;;;19.04;49.77;101705.56;2340648;75;50270;-74
2023/04/30 08:49:10;;;;;;;;;;;;;;;19.04;49.77;101705.56;2336383;76;50781;-74
2023/04/30 08:52:12;;;;;;;;;;;;;;;19.04;49.67;101699.69;2336385;75;51566;-74
2023/04/30 08:55:14;;;;;;;;;;;;;;;19.01;49.76;101703.17;2336359;75;51542;-74
2023/04/30 08:58:15;;;;;;;;;;;;;;;18.99;49.85;101699.84;2336340;75;51606;-74
2023/04/30 09:01:17;;;;;;;;;;;;;;;19.00;49.78;101697.48;2314165;76;52396;-74
2023/04/30 09:04:18;;;;;;;;;;;;;;;18.99;49.81;101703.36;2332255;76;50423;-73
2023/04/30 09:07:22;;;;;;;;;;;;;;;18.98;49.85;101705.67;2310076;76;51504;-73
2023/04/30 09:10:23;;;;;;;;;;;;;;;18.96;49.86;101696.11;2297473;77;22393;-74
2023/04/30 09:13:25;;;;;;;;;;;;;;;18.94;49.90;101702.99;2250663;77;50999;-74
2023/04/30 09:16:29;;;;;;;;;;;;;;;18.91;49.94;101703.32;2275525;77;50683;-74
2023/04/30 09:19:30;;;;;;;;;;;;;;;18.90;49.93;101713.18;2297200;77;23014;-74
2023/04/30 09:22:32;;;;;;;;;;;;;;;18.88;49.98;101704.48;2297002;76;51487;-73
2023/04/30 09:25:35;;;;;;;;;;;;;;;18.85;50.02;101707.45;2296746;77;51490;-74
2023/04/30 09:28:37;;;;;;;;;;;;;;;18.84;50.04;101705.78;2296445;77;51496;-74
2023/04/30 09:31:39;;;;;;;;;;;;;;;18.82;50.05;101715.82;2275683;77;50734;-74
2023/04/30 09:34:42;;;;;;;;;;;;;;;18.78;50.11;101709.11;2300183;76;51573;-74
2023/04/30 09:37:44;;;;;;;;;;;;;;;18.78;50.14;101705.56;2302455;75;51024;-74
2023/04/30 09:40:45;;;;;;;;;;;;;;;18.77;50.18;101715.45;2297009;77;50701;-74
2023/04/30 09:43:47;;;;;;;;;;;;;;;18.75;50.20;101721.47;2296774;77;51441;-73
2023/04/30 09:46:49;;;;;;;;;;;;;;;18.72;50.29;101718.57;2275703;77;51601;-73
2023/04/30 09:49:52;;;;;;;;;;;;;;;18.72;50.25;101708.35;2239876;77;52546;-75
2023/04/30 09:52:53;;;;;;;;;;;;;;;18.73;50.32;101720.77;2275933;77;51506;-74
2023/04/30 09:55:55;;;;;;;;;;;;;;;18.68;50.41;101712.37;2296863;77;50765;-76
2023/04/30 09:58:57;;;;;;;;;;;;;;;18.67;50.45;101703.45;2296834;77;51442;-75
2023/04/30 10:02:00;;;;;;;;;;;;;;;18.66;50.46;101700.95;2296978;77;51543;-75
2023/04/30 10:05:01;;;;;;;;;;;;;;;18.67;50.43;101698.09;2281302;76;50315;-75
2023/04/30 10:08:04;;;;;;;;;;;;;;;18.65;50.49;101699.25;2309383;76;50685;-75
2023/04/30 10:11:06;;;;;;;;;;;;;;;18.64;50.52;101691.72;2296975;76;51561;-76
2023/04/30 10:14:09;;;;;;;;;;;;;;;18.62;50.57;101699.06;2275470;77;51550;-77
2023/04/30 10:17:13;;;;;;;;;;;;;;;18.61;50.59;101694.72;2296937;76;50679;-73
2023/04/30 10:20:14;;;;;;;;;;;;;;;18.62;50.57;101692.88;2296969;77;50722;-75
2023/04/30 10:23:16;;;;;;;;;;;;;;;18.62;50.56;101691.53;2297038;77;50389;-76
2023/04/30 10:26:18;;;;;;;;;;;;;;;18.63;50.56;101697.25;2250382;76;51701;-74
2023/04/30 10:29:19;;;;;;;;;;;;;;;18.62;50.57;101695.55;2297066;77;50461;-74
2023/04/30 10:32:22;;;;;;;;;;;;;;;18.61;50.59;101693.88;2276004;77;50276;-75
2023/04/30 10:35:26;;;;;;;;;;;;;;;18.60;50.61;101694.86;2309696;76;50870;-74
2023/04/30 10:38:29;;;;;;;;;;;;;;;18.58;50.65;101689.67;2314730;76;51751;-75
2023/04/30 10:41:31;;;;;;;;;;;;;;;18.58;50.63;101687.50;2344681;76;51628;-73
2023/04/30 10:44:33;;;;;;;;;;;;;;;18.57;50.65;101684.46;2344451;76;51556;-75
2023/04/30 10:47:36;;;;;;;;;;;;;;;18.58;50.66;101683.48;2344724;75;50404;-75
2023/04/30 10:50:40;;;;;;;;;;;;;;;18.57;50.64;101679.94;2312337;74;52649;-76
2023/04/30 10:53:42;;;;;;;;;;;;;;;18.56;50.63;101674.75;2343504;75;50807;-75
2023/04/30 10:56:45;;;;;;;;;;;;;;;18.55;50.62;101672.58;2344496;76;50738;-75
2023/04/30 10:59:53;;;;;;;;;;;;;;;18.53;50.65;101667.87;2344671;76;51718;-75
2023/04/30 11:02:59;;;;;;;;;;;;;;;18.55;50.57;101673.05;2287096;76;52422;-75
2023/04/30 11:06:02;;;;;;;;;;;;;;;18.53;50.60;101671.89;2332500;76;51585;-76
2023/04/30 11:09:04;;;;;;;;;;;;;;;18.55;50.54;101667.69;2302522;75;50508;-76
2023/04/30 11:12:27;;;;;;;;;;;;;;;18.49;50.55;101660.63;2297003;77;50741;-74
2023/04/30 11:15:25;;;;;;;;;;;;;;;18.49;50.55;101667.83;2295819;76;22296;-76
2023/04/30 11:18:27;;;;;;;;;;;;;;;18.50;50.54;101660.15;2275793;77;51474;-75
2023/04/30 11:21:29;;;;;;;;;;;;;;;18.48;50.53;101665.66;2297003;77;51537;-76
2023/04/30 11:24:51;;;;;;;;;;;;;;;18.50;50.53;101666.34;2275711;77;50756;-75
2023/04/30 11:27:52;;;;;;;;;;;;;;;18.49;50.50;101665.98;2187519;80;50977;-75
2023/04/30 11:30:54;;;;;;;;;;;;;;;18.46;50.50;101659.60;2211075;79;50807;-76
2023/04/30 11:33:56;;;;;;;;;;;;;;;18.46;50.45;101658.27;2210691;80;50695;-76
2023/04/30 11:36:58;;;;;;;;;;;;;;;18.47;50.41;101655.08;2196696;79;50338;-75
2023/04/30 11:40:02;;;;;;;;;;;;;;;18.47;50.37;101651.92;2235388;79;50981;-76
2023/04/30 11:43:04;;;;;;;;;;;;;;;18.47;50.35;101647.91;2210907;79;50078;-75
2023/04/30 11:46:12;;;;;;;;;;;;;;;18.47;50.34;101650.58;2235113;79;51587;-74
2023/04/30 11:49:13;;;;;;;;;;;;;;;18.47;50.33;101658.62;2235371;77;50340;-74
2023/04/30 11:52:15;;;;;;;;;;;;;;;18.48;50.35;101660.80;2235426;79;52463;-76
2023/04/30 11:55:17;;;;;;;;;;;;;;;18.45;50.31;101649.89;2235139;79;51550;-75
2023/04/30 11:58:19;;;;;;;;;;;;;;;18.42;50.35;101640.84;2251513;76;51499;-75
2023/04/30 12:01:20;;;;;;;;;;;;;;;18.45;50.32;101640.52;2340808;75;51485;-75
2023/04/30 12:04:22;;;;;;;;;;;;;;;18.43;50.30;101641.16;2336045;75;52577;-76
2023/04/30 12:07:23;;;;;;;;;;;;;;;18.45;50.27;101638.34;2298585;76;51192;-76
2023/04/30 12:10:25;;;;;;;;;;;;;;;18.43;50.29;101638.48;2297070;77;50354;-76
2023/04/30 12:13:27;;;;;;;;;;;;;;;18.42;50.31;101636.81;2297145;77;50679;-75
2023/04/30 12:16:31;;;;;;;;;;;;;;;18.40;50.30;101633.45;2275321;77;52597;-74
2023/04/30 12:19:33;;;;;;;;;;;;;;;18.43;50.26;101635.80;2295875;76;50405;-75
2023/04/30 12:22:36;;;;;;;;;;;;;;;18.42;50.25;101641.31;2296967;77;50824;-75
2023/04/30 12:25:41;;;;;;;;;;;;;;;18.40;50.30;101644.16;2296858;77;51603;-75
2023/04/30 12:28:43;;;;;;;;;;;;;;;18.41;50.28;101634.28;2275832;77;51362;-75
2023/04/30 12:31:45;;;;;;;;;;;;;;;18.41;50.20;101639.14;2275924;77;50346;-75
2023/04/30 12:34:47;;;;;;;;;;;;;;;18.41;50.18;101632.44;2301504;75;51564;-75
2023/04/30 12:37:50;;;;;;;;;;;;;;;18.44;50.15;101631.28;2325607;75;50705;-75
2023/04/30 12:40:52;;;;;;;;;;;;;;;18.44;50.22;101632.62;2341012;75;52638;-75
2023/04/30 12:43:55;;;;;;;;;;;;;;;18.40;50.34;101628.09;2336549;76;51436;-75
2023/04/30 12:46:59;;;;;;;;;;;;;;;18.39;50.38;101630.41;2337145;75;52250;-76
2023/04/30 12:50:00;;;;;;;;;;;;;;;18.39;50.41;101633.09;2337057;75;22749;-76
2023/04/30 12:53:02;;;;;;;;;;;;;;;18.40;50.39;101620.05;2340989;75;52419;-75
2023/04/30 12:56:15;;;;;;;;;;;;;;;18.39;50.41;101619.69;2336399;76;50708;-74
2023/04/30 12:59:17;;;;;;;;;;;;;;;18.40;50.34;101609.33;2341014;75;50348;-75
2023/04/30 13:02:19;;;;;;;;;;;;;;;18.41;50.36;101616.36;2336727;76;50443;-75
2023/04/30 13:05:20;;;;;;;;;;;;;;;18.40;50.35;101613.86;2333935;75;52622;-74
2023/04/30 13:08:22;;;;;;;;;;;;;;;18.40;50.38;101607.98;2297953;76;51512;-76
2023/04/30 13:11:25;;;;;;;;;;;;;;;18.40;50.48;101609.84;2297218;77;51495;-76
2023/04/30 13:14:26;;;;;;;;;;;;;;;18.41;50.45;101613.68;2275936;77;50286;-76
2023/04/30 13:17:28;;;;;;;;;;;;;;;18.40;50.53;101604.48;2275912;77;51216;-75
2023/04/30 13:20:29;;;;;;;;;;;;;;;18.42;50.56;101608.68;2276057;77;51445;-76
2023/04/30 13:23:31;;;;;;;;;;;;;;;18.42;50.58;101601.98;2297200;77;50275;-76
2023/04/30 13:26:32;;;;;;;;;;;;;;;18.40;50.69;101595.94;2297227;77;50292;-75
2023/04/30 13:29:34;;;;;;;;;;;;;;;18.41;50.77;101600.78;2277662;77;51304;-74
2023/04/30 13:32:36;;;;;;;;;;;;;;;18.40;50.84;101605.31;2322989;76;50777;-75
2023/04/30 13:35:37;;;;;;;;;;;;;;;18.42;50.90;101599.30;2316393;75;50751;-76
2023/04/30 13:38:39;;;;;;;;;;;;;;;18.42;50.95;101594.41;2308018;76;50276;-74
2023/04/30 13:41:40;;;;;;;;;;;;;;;18.43;50.97;101594.27;2273853;76;52140;-74
2023/04/30 13:44:44;;;;;;;;;;;;;;;18.42;51.03;101593.94;2344887;75;50409;-75
2023/04/30 13:47:46;;;;;;;;;;;;;;;18.44;51.10;101594.59;2341644;75;50771;-74
2023/04/30 13:50:47;;;;;;;;;;;;;;;18.44;51.12;101581.20;2341445;75;50175;-74
2023/04/30 13:53:49;;;;;;;;;;;;;;;18.45;51.19;101577.54;2316199;76;51245;-75
2023/04/30 13:56:50;;;;;;;;;;;;;;;18.46;51.19;101581.89;2337977;75;50813;-76
2023/04/30 13:59:53;;;;;;;;;;;;;;;18.47;51.25;101568.84;2336936;76;50799;-73
2023/04/30 14:02:54;;;;;;;;;;;;;;;18.49;51.30;101561.46;2336653;76;50349;-75
2023/04/30 14:05:57;;;;;;;;;;;;;;;18.50;51.37;101557.80;2330705;75;50389;-76
2023/04/30 14:08:58;;;;;;;;;;;;;;;18.51;51.40;101562.66;2278197;77;52288;-76
2023/04/30 14:12:00;;;;;;;;;;;;;;;18.52;51.48;101552.77;2275811;77;51467;-75
2023/04/30 14:15:02;;;;;;;;;;;;;;;18.53;51.51;101554.47;2275497;77;50255;-74
2023/04/30 14:18:04;;;;;;;;;;;;;;;18.55;51.54;101552.44;2275780;77;51654;-73
2023/04/30 14:21:05;;;;;;;;;;;;;;;18.56;51.57;101550.12;2275600;77;52189;-75
2023/04/30 14:24:07;;;;;;;;;;;;;;;18.57;51.64;101547.26;2275466;77;50400;-76
2023/04/30 14:27:09;;;;;;;;;;;;;;;18.57;51.69;101546.42;2297006;76;51575;-76
2023/04/30 14:30:11;;;;;;;;;;;;;;;18.58;51.76;101551.64;2275783;77;50743;-75
2023/04/30 14:33:13;;;;;;;;;;;;;;;18.60;51.73;101546.09;2239408;77;51068;-75
2023/04/30 14:36:15;;;;;;;;;;;;;;;18.60;51.79;101541.59;2281550;76;50376;-74
2023/04/30 14:39:17;;;;;;;;;;;;;;;18.61;51.84;101541.09;2336515;76;51587;-74
2023/04/30 14:42:18;;;;;;;;;;;;;;;18.62;51.80;101534.72;2340982;75;50510;-76
2023/04/30 14:45:20;;;;;;;;;;;;;;;18.61;51.90;101532.55;2340793;75;51417;-75
2023/04/30 14:48:21;;;;;;;;;;;;;;;18.64;51.92;101536.75;2340930;75;50681;-75
2023/04/30 14:51:23;;;;;;;;;;;;;;;18.64;51.91;101525.52;2340891;75;50665;-76
2023/04/30 14:54:24;;;;;;;;;;;;;;;18.66;51.93;101528.87;2336432;76;51461;-75
2023/04/30 14:57:26;;;;;;;;;;;;;;;18.66;51.97;101523.52;2314397;76;51043;-74
2023/04/30 15:00:28;;;;;;;;;;;;;;;18.67;52.01;101525.69;2336604;76;50807;-76
2023/04/30 15:03:30;;;;;;;;;;;;;;;18.67;52.07;101525.19;2340967;75;51574;-75
2023/04/30 15:06:32;;;;;;;;;;;;;;;18.68;52.06;101526.05;2296772;75;50340;-76
2023/04/30 15:09:34;;;;;;;;;;;;;;;18.68;52.13;101522.86;2250872;77;51797;-76
2023/04/30 15:12:36;;;;;;;;;;;;;;;18.70;52.12;101517.31;2275885;77;51650;-75
2023/04/30 15:15:38;;;;;;;;;;;;;;;18.69;52.17;101520.51;2275605;76;50706;-74
2023/04/30 15:18:40;;;;;;;;;;;;;;;18.70;52.20;101518.19;2296944;76;50677;-74
2023/04/30 15:21:42;;;;;;;;;;;;;;;18.71;52.26;101512.31;2275671;77;49595;-75
2023/04/30 15:24:43;;;;;;;;;;;;;;;18.73;52.23;101510.31;2275536;77;50430;-75
2023/04/30 15:27:45;;;;;;;;;;;;;;;18.73;52.27;101513.00;2296770;76;50244;-75
2023/04/30 15:30:46;;;;;;;;;;;;;;;18.74;52.31;101509.30;2296972;76;50308;-75
2023/04/30 15:33:48;;;;;;;;;;;;;;;18.76;52.31;101509.19;2250520;77;51724;-75